sensor_id;sensor_type;location;lat;lon;timestamp;temperature;humidity
19090;DHT22;9677;50.656;13.064;2022-09-24T00:01:37;12.90;54.30
19090;DHT22;9677;50.656;13.064;2022-09-24T00:04:09;12.90;54.60
19090;DHT22;9677;50.656;13.064;2022-09-24T00:06:41;12.90;54.50
19090;DHT22;9677;50.656;13.064;2022-09-24T00:09:11;13.40;54.80
19090;DHT22;9677;50.656;13.064;2022-09-24T00:11:41;13.10;54.70
19090;DHT22;9677;50.656;13.064;2022-09-24T00:14:12;13.20;54.70
19090;DHT22;9677;50.656;13.064;2022-09-24T00:16:43;12.90;54.60
19090;DHT22;9677;50.656;13.064;2022-09-24T00:19:13;12.80;54.60
19090;DHT22;9677;50.656;13.064;2022-09-24T00:21:42;12.80;54.60
19090;DHT22;9677;50.656;13.064;2022-09-24T00:24:13;12.80;54.60
19090;DHT22;9677;50.656;13.064;2022-09-24T00:27:05;12.80;54.70
19090;DHT22;9677;50.656;13.064;2022-09-24T00:29:33;12.70;54.60
19090;DHT22;9677;50.656;13.064;2022-09-24T00:32:04;12.70;54.60
19090;DHT22;9677;50.656;13.064;2022-09-24T00:34:33;12.70;54.70
19090;DHT22;9677;50.656;13.064;2022-09-24T00:37:01;12.70;54.60
19090;DHT22;9677;50.656;13.064;2022-09-24T00:39:30;12.70;54.70
19090;DHT22;9677;50.656;13.064;2022-09-24T00:41:58;12.60;54.70
19090;DHT22;9677;50.656;13.064;2022-09-24T00:44:48;12.60;54.70
19090;DHT22;9677;50.656;13.064;2022-09-24T00:47:28;12.50;54.90
19090;DHT22;9677;50.656;13.064;2022-09-24T00:50:17;12.50;54.90
19090;DHT22;9677;50.656;13.064;2022-09-24T00:52:50;12.50;55.00
19090;DHT22;9677;50.656;13.064;2022-09-24T00:55:21;12.40;54.90
19090;DHT22;9677;50.656;13.064;2022-09-24T00:57:54;12.40;54.90
19090;DHT22;9677;50.656;13.064;2022-09-24T01:00:24;12.40;55.00
19090;DHT22;9677;50.656;13.064;2022-09-24T01:02:58;12.30;55.00
19090;DHT22;9677;50.656;13.064;2022-09-24T01:05:28;12.30;55.10
19090;DHT22;9677;50.656;13.064;2022-09-24T01:07:57;12.30;55.10
19090;DHT22;9677;50.656;13.064;2022-09-24T01:10:33;12.30;55.10
19090;DHT22;9677;50.656;13.064;2022-09-24T01:13:30;12.30;55.20
19090;DHT22;9677;50.656;13.064;2022-09-24T01:16:13;12.20;55.20
19090;DHT22;9677;50.656;13.064;2022-09-24T01:18:52;12.20;55.20
19090;DHT22;9677;50.656;13.064;2022-09-24T01:21:33;12.20;55.30
19090;DHT22;9677;50.656;13.064;2022-09-24T01:24:19;12.20;55.30
19090;DHT22;9677;50.656;13.064;2022-09-24T01:27:02;12.20;55.40
19090;DHT22;9677;50.656;13.064;2022-09-24T01:29:49;12.20;55.40
19090;DHT22;9677;50.656;13.064;2022-09-24T01:32:29;12.20;55.50
19090;DHT22;9677;50.656;13.064;2022-09-24T01:35:09;12.20;55.40
19090;DHT22;9677;50.656;13.064;2022-09-24T01:37:44;12.10;55.40
19090;DHT22;9677;50.656;13.064;2022-09-24T01:40:16;12.10;55.40
19090;DHT22;9677;50.656;13.064;2022-09-24T01:42:45;12.10;55.40
19090;DHT22;9677;50.656;13.064;2022-09-24T01:45:15;12.10;55.40
19090;DHT22;9677;50.656;13.064;2022-09-24T01:47:45;12.10;55.40
19090;DHT22;9677;50.656;13.064;2022-09-24T01:50:15;12.10;55.40
19090;DHT22;9677;50.656;13.064;2022-09-24T01:52:50;12.10;55.50
19090;DHT22;9677;50.656;13.064;2022-09-24T01:55:25;12.10;55.50
19090;DHT22;9677;50.656;13.064;2022-09-24T01:57:57;12.10;55.40
19090;DHT22;9677;50.656;13.064;2022-09-24T02:00:28;12.10;55.40
19090;DHT22;9677;50.656;13.064;2022-09-24T02:03:01;12.10;55.40
19090;DHT22;9677;50.656;13.064;2022-09-24T02:05:38;12.10;55.40
19090;DHT22;9677;50.656;13.064;2022-09-24T02:08:11;12.10;55.40
19090;DHT22;9677;50.656;13.064;2022-09-24T02:10:45;12.10;55.40
19090;DHT22;9677;50.656;13.064;2022-09-24T02:13:18;12.10;55.50
19090;DHT22;9677;50.656;13.064;2022-09-24T02:15:55;12.10;55.50
19090;DHT22;9677;50.656;13.064;2022-09-24T02:18:28;12.10;55.50
19090;DHT22;9677;50.656;13.064;2022-09-24T02:21:04;12.10;55.50
19090;DHT22;9677;50.656;13.064;2022-09-24T02:23:35;12.10;55.50
19090;DHT22;9677;50.656;13.064;2022-09-24T02:26:06;12.10;55.50
19090;DHT22;9677;50.656;13.064;2022-09-24T02:28:34;12.10;55.50
19090;DHT22;9677;50.656;13.064;2022-09-24T02:31:08;12.10;55.50
19090;DHT22;9677;50.656;13.064;2022-09-24T02:33:42;12.10;55.50
19090;DHT22;9677;50.656;13.064;2022-09-24T02:36:29;12.10;55.50
19090;DHT22;9677;50.656;13.064;2022-09-24T02:38:59;12.10;55.50
19090;DHT22;9677;50.656;13.064;2022-09-24T02:41:27;12.00;55.40
19090;DHT22;9677;50.656;13.064;2022-09-24T02:43:57;12.00;55.40
19090;DHT22;9677;50.656;13.064;2022-09-24T02:46:27;12.00;55.50
19090;DHT22;9677;50.656;13.064;2022-09-24T02:48:55;12.00;55.50
19090;DHT22;9677;50.656;13.064;2022-09-24T02:51:24;12.00;55.50
19090;DHT22;9677;50.656;13.064;2022-09-24T02:53:52;12.00;55.50
19090;DHT22;9677;50.656;13.064;2022-09-24T02:56:21;12.00;55.50
19090;DHT22;9677;50.656;13.064;2022-09-24T02:58:49;12.00;55.50
19090;DHT22;9677;50.656;13.064;2022-09-24T03:01:17;12.00;55.50
19090;DHT22;9677;50.656;13.064;2022-09-24T03:03:47;12.00;55.50
19090;DHT22;9677;50.656;13.064;2022-09-24T03:06:15;12.00;55.60
19090;DHT22;9677;50.656;13.064;2022-09-24T03:08:44;12.00;55.60
19090;DHT22;9677;50.656;13.064;2022-09-24T03:11:13;12.00;55.60
19090;DHT22;9677;50.656;13.064;2022-09-24T03:13:44;12.00;55.60
19090;DHT22;9677;50.656;13.064;2022-09-24T03:16:13;11.90;55.50
19090;DHT22;9677;50.656;13.064;2022-09-24T03:18:41;11.90;55.50
19090;DHT22;9677;50.656;13.064;2022-09-24T03:21:12;11.90;55.50
19090;DHT22;9677;50.656;13.064;2022-09-24T03:23:43;11.90;55.60
19090;DHT22;9677;50.656;13.064;2022-09-24T03:26:12;11.90;55.60
19090;DHT22;9677;50.656;13.064;2022-09-24T03:28:40;11.90;55.50
19090;DHT22;9677;50.656;13.064;2022-09-24T03:31:09;11.80;55.50
19090;DHT22;9677;50.656;13.064;2022-09-24T03:33:38;11.80;55.50
19090;DHT22;9677;50.656;13.064;2022-09-24T03:36:09;11.80;55.60
19090;DHT22;9677;50.656;13.064;2022-09-24T03:38:42;11.80;55.60
19090;DHT22;9677;50.656;13.064;2022-09-24T03:41:12;11.80;55.70
19090;DHT22;9677;50.656;13.064;2022-09-24T03:43:41;11.80;55.70
19090;DHT22;9677;50.656;13.064;2022-09-24T03:46:10;11.70;55.70
19090;DHT22;9677;50.656;13.064;2022-09-24T03:48:39;11.70;55.70
19090;DHT22;9677;50.656;13.064;2022-09-24T03:51:09;11.70;55.70
19090;DHT22;9677;50.656;13.064;2022-09-24T03:53:40;11.70;55.70
19090;DHT22;9677;50.656;13.064;2022-09-24T03:56:09;11.70;55.70
19090;DHT22;9677;50.656;13.064;2022-09-24T03:58:39;11.70;55.70
19090;DHT22;9677;50.656;13.064;2022-09-24T04:01:08;11.70;55.80
19090;DHT22;9677;50.656;13.064;2022-09-24T04:03:39;11.70;55.80
19090;DHT22;9677;50.656;13.064;2022-09-24T04:06:07;11.80;55.90
19090;DHT22;9677;50.656;13.064;2022-09-24T04:08:37;11.60;55.80
19090;DHT22;9677;50.656;13.064;2022-09-24T04:11:05;11.60;55.90
19090;DHT22;9677;50.656;13.064;2022-09-24T04:13:33;11.70;55.90
19090;DHT22;9677;50.656;13.064;2022-09-24T04:16:02;11.60;55.90
19090;DHT22;9677;50.656;13.064;2022-09-24T04:18:31;11.60;56.00
19090;DHT22;9677;50.656;13.064;2022-09-24T04:21:06;11.60;56.00
19090;DHT22;9677;50.656;13.064;2022-09-24T04:23:36;11.60;56.00
19090;DHT22;9677;50.656;13.064;2022-09-24T04:26:05;11.60;56.00
19090;DHT22;9677;50.656;13.064;2022-09-24T04:28:33;11.60;56.00
19090;DHT22;9677;50.656;13.064;2022-09-24T04:31:01;11.60;56.00
19090;DHT22;9677;50.656;13.064;2022-09-24T04:33:30;11.50;55.90
19090;DHT22;9677;50.656;13.064;2022-09-24T04:35:58;11.60;56.00
19090;DHT22;9677;50.656;13.064;2022-09-24T04:38:26;11.50;56.00
19090;DHT22;9677;50.656;13.064;2022-09-24T04:41:04;11.50;56.00
19090;DHT22;9677;50.656;13.064;2022-09-24T04:43:33;11.50;56.10
19090;DHT22;9677;50.656;13.064;2022-09-24T04:46:03;11.50;56.00
19090;DHT22;9677;50.656;13.064;2022-09-24T04:48:32;11.50;56.00
19090;DHT22;9677;50.656;13.064;2022-09-24T04:51:04;11.50;55.90
19090;DHT22;9677;50.656;13.064;2022-09-24T04:53:34;11.50;55.90
19090;DHT22;9677;50.656;13.064;2022-09-24T04:56:05;11.50;56.00
19090;DHT22;9677;50.656;13.064;2022-09-24T04:58:38;11.50;56.00
19090;DHT22;9677;50.656;13.064;2022-09-24T05:01:06;11.40;55.90
19090;DHT22;9677;50.656;13.064;2022-09-24T05:03:35;11.40;55.90
19090;DHT22;9677;50.656;13.064;2022-09-24T05:06:03;11.40;55.90
19090;DHT22;9677;50.656;13.064;2022-09-24T05:08:32;11.40;56.00
19090;DHT22;9677;50.656;13.064;2022-09-24T05:11:00;11.40;56.00
19090;DHT22;9677;50.656;13.064;2022-09-24T05:13:30;11.40;56.00
19090;DHT22;9677;50.656;13.064;2022-09-24T05:15:59;11.40;56.10
19090;DHT22;9677;50.656;13.064;2022-09-24T05:18:27;11.40;56.10
19090;DHT22;9677;50.656;13.064;2022-09-24T05:20:56;11.40;56.10
19090;DHT22;9677;50.656;13.064;2022-09-24T05:23:24;11.40;56.20
19090;DHT22;9677;50.656;13.064;2022-09-24T05:25:53;11.40;56.20
19090;DHT22;9677;50.656;13.064;2022-09-24T05:28:40;11.40;56.20
19090;DHT22;9677;50.656;13.064;2022-09-24T05:31:09;11.40;56.20
19090;DHT22;9677;50.656;13.064;2022-09-24T05:33:37;11.40;56.20
19090;DHT22;9677;50.656;13.064;2022-09-24T05:36:06;11.40;56.20
19090;DHT22;9677;50.656;13.064;2022-09-24T05:38:34;11.40;56.30
19090;DHT22;9677;50.656;13.064;2022-09-24T05:41:07;11.40;56.30
19090;DHT22;9677;50.656;13.064;2022-09-24T05:43:36;11.40;56.30
19090;DHT22;9677;50.656;13.064;2022-09-24T05:46:06;11.40;56.40
19090;DHT22;9677;50.656;13.064;2022-09-24T05:48:34;11.40;56.40
19090;DHT22;9677;50.656;13.064;2022-09-24T05:51:03;11.40;56.40
19090;DHT22;9677;50.656;13.064;2022-09-24T05:53:31;11.40;56.40
19090;DHT22;9677;50.656;13.064;2022-09-24T05:56:00;11.40;56.40
19090;DHT22;9677;50.656;13.064;2022-09-24T05:58:29;11.40;56.40
19090;DHT22;9677;50.656;13.064;2022-09-24T06:00:57;11.40;56.50
19090;DHT22;9677;50.656;13.064;2022-09-24T06:03:28;11.40;56.50
19090;DHT22;9677;50.656;13.064;2022-09-24T06:05:57;11.40;56.60
19090;DHT22;9677;50.656;13.064;2022-09-24T06:08:29;11.50;56.60
19090;DHT22;9677;50.656;13.064;2022-09-24T06:10:58;11.50;56.60
19090;DHT22;9677;50.656;13.064;2022-09-24T06:13:28;11.50;56.60
19090;DHT22;9677;50.656;13.064;2022-09-24T06:15:59;11.50;56.60
19090;DHT22;9677;50.656;13.064;2022-09-24T06:18:30;11.50;56.70
19090;DHT22;9677;50.656;13.064;2022-09-24T06:21:01;11.60;56.70
19090;DHT22;9677;50.656;13.064;2022-09-24T06:23:31;11.60;56.70
19090;DHT22;9677;50.656;13.064;2022-09-24T06:25:59;11.60;56.70
19090;DHT22;9677;50.656;13.064;2022-09-24T06:28:28;11.60;56.80
19090;DHT22;9677;50.656;13.064;2022-09-24T06:30:58;11.60;56.80
19090;DHT22;9677;50.656;13.064;2022-09-24T06:33:27;11.70;57.00
19090;DHT22;9677;50.656;13.064;2022-09-24T06:35:59;11.70;56.90
19090;DHT22;9677;50.656;13.064;2022-09-24T06:38:30;11.70;57.00
19090;DHT22;9677;50.656;13.064;2022-09-24T06:41:00;11.70;57.00
19090;DHT22;9677;50.656;13.064;2022-09-24T06:43:30;11.70;57.00
19090;DHT22;9677;50.656;13.064;2022-09-24T06:46:00;11.80;57.10
19090;DHT22;9677;50.656;13.064;2022-09-24T06:48:34;11.80;57.20
19090;DHT22;9677;50.656;13.064;2022-09-24T06:51:04;11.80;57.10
19090;DHT22;9677;50.656;13.064;2022-09-24T07:00:21;12.00;57.30
19090;DHT22;9677;50.656;13.064;2022-09-24T07:03:25;12.00;57.10
19090;DHT22;9677;50.656;13.064;2022-09-24T07:05:59;12.80;57.40
19090;DHT22;9677;50.656;13.064;2022-09-24T07:11:44;12.10;57.40
19090;DHT22;9677;50.656;13.064;2022-09-24T07:26:47;12.60;57.70
19090;DHT22;9677;50.656;13.064;2022-09-24T07:29:26;13.60;57.40
19090;DHT22;9677;50.656;13.064;2022-09-24T07:40:44;12.60;57.60
19090;DHT22;9677;50.656;13.064;2022-09-24T07:43:13;12.60;57.50
19090;DHT22;9677;50.656;13.064;2022-09-24T07:45:42;12.70;57.70
19090;DHT22;9677;50.656;13.064;2022-09-24T07:48:31;12.70;57.70
19090;DHT22;9677;50.656;13.064;2022-09-24T07:50:59;12.70;57.60
19090;DHT22;9677;50.656;13.064;2022-09-24T07:53:28;12.80;57.70
19090;DHT22;9677;50.656;13.064;2022-09-24T07:55:58;12.80;57.70
19090;DHT22;9677;50.656;13.064;2022-09-24T07:58:27;12.90;57.90
19090;DHT22;9677;50.656;13.064;2022-09-24T08:00:56;13.00;57.90
19090;DHT22;9677;50.656;13.064;2022-09-24T08:03:25;13.00;57.90
19090;DHT22;9677;50.656;13.064;2022-09-24T08:05:54;13.10;58.00
19090;DHT22;9677;50.656;13.064;2022-09-24T08:08:24;13.10;58.00
19090;DHT22;9677;50.656;13.064;2022-09-24T08:10:53;13.20;58.10
19090;DHT22;9677;50.656;13.064;2022-09-24T08:14:28;13.30;58.00
19090;DHT22;9677;50.656;13.064;2022-09-24T08:16:56;13.40;58.20
19090;DHT22;9677;50.656;13.064;2022-09-24T08:19:24;13.40;58.20
19090;DHT22;9677;50.656;13.064;2022-09-24T08:21:54;13.50;58.30
19090;DHT22;9677;50.656;13.064;2022-09-24T08:24:23;13.60;58.30
19090;DHT22;9677;50.656;13.064;2022-09-24T08:26:51;13.60;58.30
19090;DHT22;9677;50.656;13.064;2022-09-24T08:29:20;13.70;58.40
19090;DHT22;9677;50.656;13.064;2022-09-24T08:31:49;13.80;58.40
19090;DHT22;9677;50.656;13.064;2022-09-24T08:34:19;13.80;58.40
19090;DHT22;9677;50.656;13.064;2022-09-24T08:36:47;13.90;58.50
19090;DHT22;9677;50.656;13.064;2022-09-24T08:39:16;14.00;58.50
19090;DHT22;9677;50.656;13.064;2022-09-24T08:41:51;14.10;58.60
19090;DHT22;9677;50.656;13.064;2022-09-24T08:44:27;14.20;58.80
19090;DHT22;9677;50.656;13.064;2022-09-24T08:47:22;14.30;58.70
19090;DHT22;9677;50.656;13.064;2022-09-24T08:50:05;14.40;58.70
19090;DHT22;9677;50.656;13.064;2022-09-24T08:52:51;14.50;58.70
19090;DHT22;9677;50.656;13.064;2022-09-24T08:55:32;14.60;58.80
19090;DHT22;9677;50.656;13.064;2022-09-24T08:58:16;14.70;58.60
19090;DHT22;9677;50.656;13.064;2022-09-24T09:00:56;14.80;58.60
19090;DHT22;9677;50.656;13.064;2022-09-24T09:03:35;14.90;58.40
19090;DHT22;9677;50.656;13.064;2022-09-24T09:06:13;15.00;58.40
19090;DHT22;9677;50.656;13.064;2022-09-24T09:08:57;15.10;58.30
19090;DHT22;9677;50.656;13.064;2022-09-24T09:11:35;15.20;58.10
19090;DHT22;9677;50.656;13.064;2022-09-24T09:14:09;15.30;58.00
19090;DHT22;9677;50.656;13.064;2022-09-24T09:16:46;15.40;58.00
19090;DHT22;9677;50.656;13.064;2022-09-24T09:19:20;15.40;57.90
19090;DHT22;9677;50.656;13.064;2022-09-24T09:21:54;15.50;57.80
19090;DHT22;9677;50.656;13.064;2022-09-24T09:24:26;15.60;57.70
19090;DHT22;9677;50.656;13.064;2022-09-24T09:27:10;15.60;57.70
19090;DHT22;9677;50.656;13.064;2022-09-24T09:29:41;15.70;57.80
19090;DHT22;9677;50.656;13.064;2022-09-24T09:32:20;15.80;57.80
19090;DHT22;9677;50.656;13.064;2022-09-24T09:35:10;15.80;57.80
19090;DHT22;9677;50.656;13.064;2022-09-24T09:37:51;15.90;58.40
19090;DHT22;9677;50.656;13.064;2022-09-24T09:40:30;16.10;57.90
19090;DHT22;9677;50.656;13.064;2022-09-24T09:43:04;16.20;58.00
19090;DHT22;9677;50.656;13.064;2022-09-24T09:45:41;16.30;58.00
19090;DHT22;9677;50.656;13.064;2022-09-24T09:48:14;16.50;58.20
19090;DHT22;9677;50.656;13.064;2022-09-24T09:50:48;16.70;58.10
19090;DHT22;9677;50.656;13.064;2022-09-24T09:53:19;16.90;58.10
19090;DHT22;9677;50.656;13.064;2022-09-24T09:55:53;17.00;58.10
19090;DHT22;9677;50.656;13.064;2022-09-24T09:58:23;17.20;58.10
19090;DHT22;9677;50.656;13.064;2022-09-24T10:01:03;17.40;58.10
19090;DHT22;9677;50.656;13.064;2022-09-24T10:03:44;17.60;57.90
19090;DHT22;9677;50.656;13.064;2022-09-24T10:06:24;17.80;57.70
19090;DHT22;9677;50.656;13.064;2022-09-24T10:08:53;18.10;57.20
19090;DHT22;9677;50.656;13.064;2022-09-24T10:11:32;18.20;57.00
19090;DHT22;9677;50.656;13.064;2022-09-24T10:14:02;18.40;56.60
19090;DHT22;9677;50.656;13.064;2022-09-24T10:16:36;18.50;57.00
19090;DHT22;9677;50.656;13.064;2022-09-24T10:19:14;18.70;55.90
19090;DHT22;9677;50.656;13.064;2022-09-24T10:21:45;18.80;56.50
19090;DHT22;9677;50.656;13.064;2022-09-24T10:24:18;18.90;56.10
19090;DHT22;9677;50.656;13.064;2022-09-24T10:26:47;19.10;56.20
19090;DHT22;9677;50.656;13.064;2022-09-24T10:29:18;19.30;55.80
19090;DHT22;9677;50.656;13.064;2022-09-24T10:32:13;19.40;55.20
19090;DHT22;9677;50.656;13.064;2022-09-24T10:34:42;19.60;54.90
19090;DHT22;9677;50.656;13.064;2022-09-24T10:37:24;19.80;55.30
19090;DHT22;9677;50.656;13.064;2022-09-24T10:39:57;19.90;55.00
19090;DHT22;9677;50.656;13.064;2022-09-24T10:42:27;20.10;54.60
19090;DHT22;9677;50.656;13.064;2022-09-24T10:44:59;20.20;54.60
19090;DHT22;9677;50.656;13.064;2022-09-24T10:47:35;20.40;54.40
19090;DHT22;9677;50.656;13.064;2022-09-24T10:50:23;20.60;54.20
19090;DHT22;9677;50.656;13.064;2022-09-24T10:52:59;20.70;53.50
19090;DHT22;9677;50.656;13.064;2022-09-24T10:55:46;20.90;53.50
19090;DHT22;9677;50.656;13.064;2022-09-24T10:58:34;21.20;53.40
19090;DHT22;9677;50.656;13.064;2022-09-24T11:01:28;21.30;53.40
19090;DHT22;9677;50.656;13.064;2022-09-24T11:04:21;21.50;53.40
19090;DHT22;9677;50.656;13.064;2022-09-24T11:07:29;21.70;52.70
19090;DHT22;9677;50.656;13.064;2022-09-24T11:10:19;21.90;52.40
19090;DHT22;9677;50.656;13.064;2022-09-24T11:13:01;22.10;52.50
19090;DHT22;9677;50.656;13.064;2022-09-24T11:15:49;22.30;51.90
19090;DHT22;9677;50.656;13.064;2022-09-24T11:18:40;22.40;51.60
19090;DHT22;9677;50.656;13.064;2022-09-24T11:21:22;22.50;52.30
19090;DHT22;9677;50.656;13.064;2022-09-24T11:24:09;22.70;51.30
19090;DHT22;9677;50.656;13.064;2022-09-24T11:26:57;22.80;51.30
19090;DHT22;9677;50.656;13.064;2022-09-24T11:29:46;23.00;51.30
19090;DHT22;9677;50.656;13.064;2022-09-24T11:32:24;23.20;51.20
19090;DHT22;9677;50.656;13.064;2022-09-24T11:35:06;23.30;51.00
19090;DHT22;9677;50.656;13.064;2022-09-24T11:37:55;23.40;49.90
19090;DHT22;9677;50.656;13.064;2022-09-24T11:43:54;23.60;49.90
19090;DHT22;9677;50.656;13.064;2022-09-24T11:46:42;23.60;49.00
19090;DHT22;9677;50.656;13.064;2022-09-24T11:52:27;23.70;49.40
19090;DHT22;9677;50.656;13.064;2022-09-24T11:55:03;23.80;49.50
19090;DHT22;9677;50.656;13.064;2022-09-24T11:57:40;23.90;49.40
19090;DHT22;9677;50.656;13.064;2022-09-24T12:00:14;23.90;49.00
19090;DHT22;9677;50.656;13.064;2022-09-24T12:02:47;23.90;49.00
19090;DHT22;9677;50.656;13.064;2022-09-24T12:05:25;23.90;48.80
19090;DHT22;9677;50.656;13.064;2022-09-24T12:07:58;23.90;48.70
19090;DHT22;9677;50.656;13.064;2022-09-24T12:10:34;24.00;49.00
19090;DHT22;9677;50.656;13.064;2022-09-24T12:13:10;24.00;48.80
19090;DHT22;9677;50.656;13.064;2022-09-24T12:15:48;24.00;48.40
19090;DHT22;9677;50.656;13.064;2022-09-24T12:18:22;24.10;48.00
19090;DHT22;9677;50.656;13.064;2022-09-24T12:20:57;24.00;47.80
19090;DHT22;9677;50.656;13.064;2022-09-24T12:23:29;24.00;47.80
19090;DHT22;9677;50.656;13.064;2022-09-24T12:26:03;23.90;48.10
19090;DHT22;9677;50.656;13.064;2022-09-24T12:28:37;23.90;48.10
19090;DHT22;9677;50.656;13.064;2022-09-24T12:31:31;23.90;48.20
19090;DHT22;9677;50.656;13.064;2022-09-24T12:34:27;23.90;48.20
19090;DHT22;9677;50.656;13.064;2022-09-24T12:37:03;23.80;48.00
19090;DHT22;9677;50.656;13.064;2022-09-24T12:39:37;23.80;48.00
19090;DHT22;9677;50.656;13.064;2022-09-24T12:42:11;23.80;48.10
19090;DHT22;9677;50.656;13.064;2022-09-24T12:44:42;23.80;48.30
19090;DHT22;9677;50.656;13.064;2022-09-24T12:47:19;23.80;48.20
19090;DHT22;9677;50.656;13.064;2022-09-24T12:50:19;23.80;47.90
19090;DHT22;9677;50.656;13.064;2022-09-24T12:52:49;23.80;47.70
19090;DHT22;9677;50.656;13.064;2022-09-24T12:55:20;23.80;48.30
19090;DHT22;9677;50.656;13.064;2022-09-24T12:57:52;23.80;48.30
19090;DHT22;9677;50.656;13.064;2022-09-24T13:00:36;23.80;48.20
19090;DHT22;9677;50.656;13.064;2022-09-24T13:03:29;23.80;48.50
19090;DHT22;9677;50.656;13.064;2022-09-24T13:06:00;23.80;48.30
19090;DHT22;9677;50.656;13.064;2022-09-24T13:08:35;23.90;48.00
19090;DHT22;9677;50.656;13.064;2022-09-24T13:11:24;23.90;47.60
19090;DHT22;9677;50.656;13.064;2022-09-24T13:14:00;23.90;47.50
19090;DHT22;9677;50.656;13.064;2022-09-24T13:16:37;23.90;47.90
19090;DHT22;9677;50.656;13.064;2022-09-24T13:19:21;24.00;48.60
19090;DHT22;9677;50.656;13.064;2022-09-24T13:21:53;23.90;47.60
19090;DHT22;9677;50.656;13.064;2022-09-24T13:24:26;24.00;48.00
19090;DHT22;9677;50.656;13.064;2022-09-24T13:27:08;24.00;47.80
19090;DHT22;9677;50.656;13.064;2022-09-24T13:29:38;24.00;47.20
19090;DHT22;9677;50.656;13.064;2022-09-24T13:32:15;24.00;47.50
19090;DHT22;9677;50.656;13.064;2022-09-24T13:34:47;24.00;47.10
19090;DHT22;9677;50.656;13.064;2022-09-24T13:37:21;24.00;47.80
19090;DHT22;9677;50.656;13.064;2022-09-24T13:39:55;24.00;46.60
19090;DHT22;9677;50.656;13.064;2022-09-24T13:42:32;23.90;46.70
19090;DHT22;9677;50.656;13.064;2022-09-24T13:45:04;23.90;46.90
19090;DHT22;9677;50.656;13.064;2022-09-24T13:47:40;23.80;47.30
19090;DHT22;9677;50.656;13.064;2022-09-24T13:50:15;23.80;47.40
19090;DHT22;9677;50.656;13.064;2022-09-24T13:52:49;23.80;47.50
19090;DHT22;9677;50.656;13.064;2022-09-24T13:55:23;23.80;47.30
19090;DHT22;9677;50.656;13.064;2022-09-24T13:57:53;23.80;47.20
19090;DHT22;9677;50.656;13.064;2022-09-24T14:00:23;23.80;47.20
19090;DHT22;9677;50.656;13.064;2022-09-24T14:02:56;23.70;47.00
19090;DHT22;9677;50.656;13.064;2022-09-24T14:05:31;23.80;47.10
19090;DHT22;9677;50.656;13.064;2022-09-24T14:08:04;23.80;46.70
19090;DHT22;9677;50.656;13.064;2022-09-24T14:10:33;23.90;47.00
19090;DHT22;9677;50.656;13.064;2022-09-24T14:13:13;23.70;47.00
19090;DHT22;9677;50.656;13.064;2022-09-24T14:15:55;23.70;46.80
19090;DHT22;9677;50.656;13.064;2022-09-24T14:18:26;23.60;46.90
19090;DHT22;9677;50.656;13.064;2022-09-24T14:20:58;23.60;47.30
19090;DHT22;9677;50.656;13.064;2022-09-24T14:23:34;23.60;47.10
19090;DHT22;9677;50.656;13.064;2022-09-24T14:26:05;23.60;47.10
19090;DHT22;9677;50.656;13.064;2022-09-24T14:28:34;23.50;47.10
19090;DHT22;9677;50.656;13.064;2022-09-24T14:31:06;23.60;47.10
19090;DHT22;9677;50.656;13.064;2022-09-24T14:33:36;23.50;46.90
19090;DHT22;9677;50.656;13.064;2022-09-24T14:36:09;23.50;47.20
19090;DHT22;9677;50.656;13.064;2022-09-24T14:38:50;23.50;47.00
19090;DHT22;9677;50.656;13.064;2022-09-24T14:41:21;23.40;46.80
19090;DHT22;9677;50.656;13.064;2022-09-24T14:43:53;23.50;47.20
19090;DHT22;9677;50.656;13.064;2022-09-24T14:46:25;23.30;47.10
19090;DHT22;9677;50.656;13.064;2022-09-24T14:49:04;23.50;47.20
19090;DHT22;9677;50.656;13.064;2022-09-24T14:51:35;23.20;47.00
19090;DHT22;9677;50.656;13.064;2022-09-24T14:54:20;23.20;47.30
19090;DHT22;9677;50.656;13.064;2022-09-24T14:56:55;23.20;47.30
19090;DHT22;9677;50.656;13.064;2022-09-24T14:59:28;23.20;47.40
19090;DHT22;9677;50.656;13.064;2022-09-24T15:02:12;23.10;47.30
19090;DHT22;9677;50.656;13.064;2022-09-24T15:04:44;22.90;47.20
19090;DHT22;9677;50.656;13.064;2022-09-24T15:07:21;22.90;47.50
19090;DHT22;9677;50.656;13.064;2022-09-24T15:09:53;22.90;47.50
19090;DHT22;9677;50.656;13.064;2022-09-24T15:12:24;22.80;47.70
19090;DHT22;9677;50.656;13.064;2022-09-24T15:14:59;22.80;47.90
19090;DHT22;9677;50.656;13.064;2022-09-24T15:17:30;22.90;48.00
19090;DHT22;9677;50.656;13.064;2022-09-24T15:19:59;22.80;48.00
19090;DHT22;9677;50.656;13.064;2022-09-24T15:22:30;22.70;48.00
19090;DHT22;9677;50.656;13.064;2022-09-24T15:24:58;22.70;47.90
19090;DHT22;9677;50.656;13.064;2022-09-24T15:27:29;22.70;47.80
19090;DHT22;9677;50.656;13.064;2022-09-24T15:30:00;22.70;47.90
19090;DHT22;9677;50.656;13.064;2022-09-24T15:32:31;22.70;47.90
19090;DHT22;9677;50.656;13.064;2022-09-24T15:35:01;22.60;47.90
19090;DHT22;9677;50.656;13.064;2022-09-24T15:37:37;22.50;47.80
19090;DHT22;9677;50.656;13.064;2022-09-24T15:40:09;22.50;47.90
19090;DHT22;9677;50.656;13.064;2022-09-24T15:42:43;22.40;47.90
19090;DHT22;9677;50.656;13.064;2022-09-24T15:45:15;22.40;48.00
19090;DHT22;9677;50.656;13.064;2022-09-24T15:47:44;22.30;47.90
19090;DHT22;9677;50.656;13.064;2022-09-24T15:50:13;22.40;48.10
19090;DHT22;9677;50.656;13.064;2022-09-24T15:52:46;22.30;48.00
19090;DHT22;9677;50.656;13.064;2022-09-24T15:55:17;22.20;48.00
19090;DHT22;9677;50.656;13.064;2022-09-24T15:57:46;22.10;48.10
19090;DHT22;9677;50.656;13.064;2022-09-24T16:00:16;22.20;48.30
19090;DHT22;9677;50.656;13.064;2022-09-24T16:02:48;22.00;48.10
19090;DHT22;9677;50.656;13.064;2022-09-24T16:05:18;22.00;48.80
19090;DHT22;9677;50.656;13.064;2022-09-24T16:07:48;22.00;48.20
19090;DHT22;9677;50.656;13.064;2022-09-24T16:10:17;21.90;48.20
19090;DHT22;9677;50.656;13.064;2022-09-24T16:12:46;21.80;48.30
19090;DHT22;9677;50.656;13.064;2022-09-24T16:15:15;21.80;48.30
19090;DHT22;9677;50.656;13.064;2022-09-24T16:17:43;21.70;48.30
19090;DHT22;9677;50.656;13.064;2022-09-24T16:20:11;21.70;48.40
19090;DHT22;9677;50.656;13.064;2022-09-24T16:22:40;21.70;48.50
19090;DHT22;9677;50.656;13.064;2022-09-24T16:25:09;21.60;48.60
19090;DHT22;9677;50.656;13.064;2022-09-24T16:27:38;21.60;48.60
19090;DHT22;9677;50.656;13.064;2022-09-24T16:30:07;21.60;48.70
19090;DHT22;9677;50.656;13.064;2022-09-24T16:32:36;21.40;48.70
19090;DHT22;9677;50.656;13.064;2022-09-24T16:35:05;21.40;48.70
19090;DHT22;9677;50.656;13.064;2022-09-24T16:37:36;21.30;48.80
19090;DHT22;9677;50.656;13.064;2022-09-24T16:40:06;21.30;48.80
19090;DHT22;9677;50.656;13.064;2022-09-24T16:42:36;21.20;48.80
19090;DHT22;9677;50.656;13.064;2022-09-24T16:45:05;21.20;48.90
19090;DHT22;9677;50.656;13.064;2022-09-24T16:47:36;21.10;48.90
19090;DHT22;9677;50.656;13.064;2022-09-24T16:50:05;21.10;49.00